Time;durP1;ratioP1;P1;durP2;ratioP2;P2;SDS_P1;SDS_P2;PMS_P1;PMS_P2;Temp;Humidity;BMP_temperature;BMP_pressure;BME280_temperature;BME280_humidity;BME280_pressure;Samples;Min_cycle;Max_cycle;Signal;HPM_P1;HPM_P2
2023/01/21 00:01:10;;;;;;;28.20;10.27;;;;;;;-2.22;54.16;102717.41;4986389;28;20523;-79
2023/01/21 00:03:36;;;;;;;26.15;11.52;;;;;;;-2.24;54.49;102714.75;5002224;28;20077;-77
2023/01/21 00:06:01;;;;;;;24.88;9.82;;;;;;;-2.09;54.45;102716.22;4987587;28;20022;-83
2023/01/21 00:08:27;;;;;;;24.25;10.48;;;;;;;-1.98;53.91;102717.53;5003426;28;20041;-82
2023/01/21 00:10:53;;;;;;;26.63;11.90;;;;;;;-1.96;53.38;102717.59;4985554;28;20057;-82
2023/01/21 00:13:19;;;;;;;29.02;10.50;;;;;;;-2.11;53.31;102721.28;5000944;28;20673;-79
2023/01/21 00:15:44;;;;;;;27.13;10.68;;;;;;;-2.21;53.43;102730.25;4971543;28;20029;-78
2023/01/21 00:18:10;;;;;;;32.88;12.60;;;;;;;-2.36;53.74;102737.28;4988026;28;20095;-79
2023/01/21 00:20:36;;;;;;;28.90;10.80;;;;;;;-2.44;53.52;102738.66;4985893;28;20052;-79
2023/01/21 00:23:01;;;;;;;25.27;10.00;;;;;;;-2.43;53.72;102743.81;4983883;28;20050;-80
2023/01/21 00:25:27;;;;;;;23.63;8.98;;;;;;;-2.48;53.70;102744.44;4985044;28;20057;-80
2023/01/21 00:27:52;;;;;;;26.27;10.02;;;;;;;-2.49;53.91;102748.69;4969251;28;20084;-81
2023/01/21 00:30:18;;;;;;;23.23;9.07;;;;;;;-2.57;53.53;102755.16;4969589;28;20645;-83
2023/01/21 00:32:43;;;;;;;24.70;10.40;;;;;;;-2.57;53.60;102749.16;4970266;28;20038;-84
2023/01/21 00:35:09;;;;;;;25.17;10.27;;;;;;;-2.65;53.17;102752.25;4968725;28;20037;-78
2023/01/21 00:37:34;;;;;;;25.38;9.02;;;;;;;-2.81;53.37;102754.03;4982390;28;20046;-78
2023/01/21 00:40:00;;;;;;;23.52;9.50;;;;;;;-2.81;53.48;102754.91;4988115;28;20472;-79
2023/01/21 00:42:26;;;;;;;25.08;10.15;;;;;;;-2.75;53.90;102762.00;5000456;28;20060;-77
2023/01/21 00:44:52;;;;;;;22.42;9.90;;;;;;;-2.87;54.10;102752.97;5002963;28;20076;-81
2023/01/21 00:47:18;;;;;;;21.08;8.98;;;;;;;-2.78;54.40;102760.19;4968423;28;20038;-80
2023/01/21 00:49:43;;;;;;;22.80;8.85;;;;;;;-2.69;54.50;102765.72;4969350;28;20554;-78
2023/01/21 00:52:09;;;;;;;21.90;10.13;;;;;;;-2.71;54.37;102769.88;4969270;28;20042;-79
2023/01/21 00:54:34;;;;;;;24.48;7.72;;;;;;;-2.71;54.53;102766.47;4999731;28;20568;-84
2023/01/21 00:57:00;;;;;;;16.35;7.70;;;;;;;-2.69;54.31;102769.97;4984959;28;20041;-83
2023/01/21 00:59:28;;;;;;;22.83;10.02;;;;;;;-2.64;54.57;102778.72;4968717;28;20030;-79
2023/01/21 01:01:54;;;;;;;18.40;7.15;;;;;;;-2.47;54.46;102767.56;4984698;28;20069;-78
2023/01/21 01:04:20;;;;;;;21.20;8.75;;;;;;;-2.46;54.11;102778.66;4983623;28;20073;-80
2023/01/21 01:06:45;;;;;;;20.10;8.10;;;;;;;-2.41;53.97;102779.75;4999897;28;20049;-82
2023/01/21 01:09:11;;;;;;;25.90;8.25;;;;;;;-2.49;53.78;102783.63;5001034;28;20812;-84
2023/01/21 01:11:38;;;;;;;22.98;8.75;;;;;;;-2.55;54.13;102788.50;5000817;28;20045;-80
2023/01/21 01:14:04;;;;;;;28.48;10.05;;;;;;;-2.57;54.29;102788.44;4984475;28;20041;-81
2023/01/21 01:16:30;;;;;;;24.48;9.10;;;;;;;-2.48;54.37;102800.78;4982119;28;20107;-83
2023/01/21 01:18:56;;;;;;;18.80;8.27;;;;;;;-2.43;54.13;102794.16;4968758;28;20065;-79
2023/01/21 01:21:22;;;;;;;20.27;8.25;;;;;;;-2.44;54.04;102789.88;4980500;28;20065;-82
2023/01/21 01:23:53;;;;;;;29.45;9.30;;;;;;;-2.52;54.30;102794.63;4984963;28;20026;-81
2023/01/21 01:26:20;;;;;;;21.33;8.45;;;;;;;-2.47;54.05;102802.50;4981986;28;20503;-82
2023/01/21 01:28:46;;;;;;;25.73;10.10;;;;;;;-2.55;54.32;102791.94;4984499;28;20042;-79
2023/01/21 01:31:15;;;;;;;24.08;8.80;;;;;;;-2.54;54.30;102800.50;4967532;28;20038;-84
2023/01/21 01:33:40;;;;;;;23.02;8.48;;;;;;;-2.41;54.63;102802.78;4985049;28;20061;-81
2023/01/21 01:36:12;;;;;;;26.90;9.30;;;;;;;-2.35;54.31;102808.19;4999350;28;20061;-81
2023/01/21 01:38:37;;;;;;;22.52;8.65;;;;;;;-2.39;54.21;102806.31;4984560;28;20022;-80
2023/01/21 01:41:03;;;;;;;20.52;8.68;;;;;;;-2.42;54.53;102816.41;4982734;28;20427;-78
2023/01/21 01:43:49;;;;;;;25.85;9.98;;;;;;;-2.28;54.44;102825.59;5000003;28;20030;-80
2023/01/21 01:46:15;;;;;;;21.95;8.63;;;;;;;-2.15;54.50;102821.88;4998318;28;20408;-80
2023/01/21 01:48:44;;;;;;;25.65;8.63;;;;;;;-2.05;54.43;102818.91;4983924;28;20030;-79
2023/01/21 01:51:12;;;;;;;27.60;10.80;;;;;;;-2.01;54.23;102819.91;4998512;28;20069;-79
2023/01/21 01:53:41;;;;;;;29.95;11.02;;;;;;;-1.87;54.24;102823.94;5000624;28;20028;-79
2023/01/21 01:56:07;;;;;;;28.50;9.80;;;;;;;-1.83;54.22;102823.28;4968475;28;20084;-78
2023/01/21 01:58:33;;;;;;;27.98;9.75;;;;;;;-1.82;53.92;102821.59;4987501;28;20018;-82
2023/01/21 02:00:58;;;;;;;23.77;9.10;;;;;;;-1.82;53.68;102827.59;4987673;28;20604;-79
2023/01/21 02:03:45;;;;;;;24.15;8.57;;;;;;;-1.87;53.66;102834.19;5005944;28;20034;-84
2023/01/21 02:06:12;;;;;;;23.23;10.05;;;;;;;-1.93;53.44;102839.09;5001247;28;20053;-82
2023/01/21 02:08:38;;;;;;;26.45;9.43;;;;;;;-1.89;53.28;102828.16;4970336;28;20116;-80
2023/01/21 02:11:15;;;;;;;25.70;9.25;;;;;;;-1.96;53.23;102844.06;4985149;28;20907;-79
2023/01/21 02:13:43;;;;;;;26.50;9.48;;;;;;;-2.09;53.76;102845.22;5002862;28;20044;-79
2023/01/21 02:16:33;;;;;;;31.33;11.50;;;;;;;-2.12;53.80;102846.75;4985560;28;20026;-79
2023/01/21 02:19:25;;;;;;;26.80;9.30;;;;;;;-1.85;53.57;102840.28;5002976;28;20036;-79
2023/01/21 02:22:34;;;;;;;22.85;9.30;;;;;;;-1.96;53.60;102844.06;4939718;28;20053;-80
2023/01/21 02:25:27;;;;;;;22.05;8.65;;;;;;;-2.02;53.11;102852.38;4945083;28;20035;-79
2023/01/21 02:28:09;;;;;;;33.50;12.05;;;;;;;-2.19;53.39;102852.44;4961606;28;20047;-78
2023/01/21 02:31:10;;;;;;;29.40;9.93;;;;;;;-2.18;53.46;102861.84;4974038;28;20053;-80
2023/01/21 02:33:56;;;;;;;29.27;9.88;;;;;;;-2.18;53.78;102864.41;5001823;28;20038;-77
2023/01/21 02:36:44;;;;;;;23.75;9.52;;;;;;;-2.21;54.09;102868.59;4989435;28;20193;-81
2023/01/21 02:39:14;;;;;;;27.05;9.90;;;;;;;-2.13;53.93;102866.41;4974207;28;20021;-78
2023/01/21 02:42:06;;;;;;;25.95;10.35;;;;;;;-2.17;53.60;102868.75;4973750;28;20084;-81
2023/01/21 02:45:09;;;;;;;32.37;10.40;;;;;;;-2.32;53.70;102874.91;4991062;28;20038;-80
2023/01/21 02:47:51;;;;;;;26.02;8.23;;;;;;;-2.55;53.78;102870.44;5007125;28;20064;-80
2023/01/21 02:50:23;;;;;;;25.92;9.65;;;;;;;-2.38;53.45;102872.09;5007973;28;20248;-79
2023/01/21 02:53:00;;;;;;;32.13;10.52;;;;;;;-2.47;53.35;102872.56;4990931;28;20041;-79
2023/01/21 02:55:30;;;;;;;26.90;9.27;;;;;;;-2.55;53.38;102875.56;4992888;28;20089;-80
2023/01/21 02:58:01;;;;;;;22.95;8.32;;;;;;;-2.63;53.70;102870.94;5006232;28;20038;-82
2023/01/21 03:00:51;;;;;;;22.80;9.30;;;;;;;-2.81;54.22;102876.88;4986113;28;20153;-83
2023/01/21 03:03:29;;;;;;;33.03;10.85;;;;;;;-2.90;54.21;102875.63;5009757;28;20093;-85
2023/01/21 03:06:15;;;;;;;27.38;10.13;;;;;;;-2.92;54.21;102876.38;5027787;28;20044;-85
2023/01/21 03:08:47;;;;;;;23.27;9.07;;;;;;;-2.78;54.21;102882.13;5011002;28;20030;-84
2023/01/21 03:11:18;;;;;;;26.40;11.10;;;;;;;-2.79;53.94;102875.28;5025454;28;20061;-86
2023/01/21 03:16:55;;;;;;;21.17;8.50;;;;;;;-2.64;54.04;102889.69;5026076;28;20052;-85
2023/01/21 03:19:31;;;;;;;21.23;8.40;;;;;;;-2.54;53.89;102897.78;5029065;28;20015;-83
2023/01/21 03:21:59;;;;;;;19.25;7.93;;;;;;;-2.52;54.38;102902.16;5007308;28;20042;-85
2023/01/21 03:24:25;;;;;;;16.17;7.35;;;;;;;-2.35;53.83;102899.53;4985862;28;20257;-85
2023/01/21 03:26:56;;;;;;;26.35;8.55;;;;;;;-2.36;53.63;102903.75;4986850;28;20097;-82
2023/01/21 03:29:25;;;;;;;21.67;9.27;;;;;;;-2.48;53.89;102905.75;4994743;28;20540;-80
2023/01/21 03:31:56;;;;;;;25.30;10.05;;;;;;;-2.45;53.84;102905.88;5006992;28;20050;-83
2023/01/21 03:34:26;;;;;;;23.38;8.18;;;;;;;-2.35;54.11;102904.66;5023151;28;20033;-85
2023/01/21 03:37:03;;;;;;;21.40;8.60;;;;;;;-2.36;54.14;102908.88;5022872;28;20244;-83
2023/01/21 03:39:39;;;;;;;24.67;8.70;;;;;;;-2.30;53.70;102916.84;4981186;28;20030;-83
2023/01/21 03:42:05;;;;;;;21.45;7.78;;;;;;;-2.26;53.87;102905.94;5000273;28;20066;-85
2023/01/21 03:44:31;;;;;;;24.13;8.70;;;;;;;-2.32;53.46;102921.03;5020710;28;20038;-85
2023/01/21 03:47:30;;;;;;;20.48;8.40;;;;;;;-2.24;54.12;102916.28;5000886;28;20041;-83
2023/01/21 03:49:58;;;;;;;23.63;8.77;;;;;;;-2.23;53.75;102916.31;5020797;28;20038;-80
2023/01/21 03:52:25;;;;;;;28.50;9.45;;;;;;;-2.17;53.79;102920.00;4997279;28;20057;-85
2023/01/21 03:54:51;;;;;;;25.92;10.05;;;;;;;-2.15;53.82;102915.81;5021750;28;20037;-85
2023/01/21 03:57:16;;;;;;;22.55;9.43;;;;;;;-2.22;53.41;102923.22;5012398;28;20049;-80
2023/01/21 03:59:42;;;;;;;24.75;8.90;;;;;;;-2.19;53.77;102921.59;5011045;28;20682;-84
2023/01/21 04:02:08;;;;;;;25.55;9.80;;;;;;;-2.26;53.78;102923.88;5019788;28;20042;-85
2023/01/21 04:04:33;;;;;;;24.70;9.80;;;;;;;-2.22;53.88;102928.34;5004139;28;20037;-85
2023/01/21 04:06:59;;;;;;;21.15;9.02;;;;;;;-2.16;53.87;102931.97;5010185;28;20025;-83
2023/01/21 04:09:24;;;;;;;21.88;9.35;;;;;;;-2.30;53.71;102937.34;4992955;28;20145;-84
2023/01/21 04:11:50;;;;;;;21.10;9.13;;;;;;;-2.34;53.90;102940.56;5015297;28;20089;-80
2023/01/21 04:14:15;;;;;;;23.42;7.82;;;;;;;-2.40;53.88;102940.31;4997205;28;20034;-83
2023/01/21 04:16:41;;;;;;;18.10;8.13;;;;;;;-2.52;54.19;102949.94;4998724;28;20034;-83
2023/01/21 04:19:06;;;;;;;20.23;8.45;;;;;;;-2.45;54.12;102945.22;5006517;28;20026;-82
2023/01/21 04:21:32;;;;;;;21.08;8.32;;;;;;;-2.51;54.00;102944.03;5003573;28;20111;-83
2023/01/21 04:23:57;;;;;;;21.95;8.32;;;;;;;-2.67;54.42;102953.53;4983099;28;20492;-82
2023/01/21 04:26:23;;;;;;;21.92;8.43;;;;;;;-2.75;54.03;102959.97;5008665;28;20045;-82
2023/01/21 04:28:48;;;;;;;20.75;8.18;;;;;;;-2.78;54.52;102953.81;4992694;28;20453;-83
2023/01/21 04:31:14;;;;;;;22.42;8.80;;;;;;;-2.77;54.37;102950.47;5004463;28;20038;-83
2023/01/21 04:33:39;;;;;;;23.08;9.40;;;;;;;-2.82;54.32;102949.38;5000713;28;20036;-83
2023/01/21 04:36:05;;;;;;;20.45;8.52;;;;;;;-2.78;54.27;102949.59;4989284;28;20048;-84
2023/01/21 04:38:30;;;;;;;20.52;8.10;;;;;;;-2.78;53.99;102948.69;4997276;28;20954;-84
2023/01/21 04:40:56;;;;;;;21.75;8.18;;;;;;;-2.79;53.77;102952.94;4994733;28;20068;-84
2023/01/21 04:43:21;;;;;;;15.27;6.97;;;;;;;-2.89;53.91;102953.31;4993710;28;20400;-83
2023/01/21 04:45:48;;;;;;;19.38;8.30;;;;;;;-2.90;53.97;102948.97;4983240;28;20396;-79
2023/01/21 04:48:15;;;;;;;22.38;8.48;;;;;;;-3.10;54.39;102951.41;5000888;28;20069;-83
2023/01/21 04:50:41;;;;;;;19.55;8.15;;;;;;;-3.23;54.47;102963.50;4968470;28;20034;-82
2023/01/21 04:53:06;;;;;;;24.90;9.02;;;;;;;-3.30;54.79;102972.56;5000754;28;20095;-78
2023/01/21 04:55:31;;;;;;;23.15;9.25;;;;;;;-3.34;55.09;102975.75;4985133;28;21445;-79
2023/01/21 04:57:57;;;;;;;22.90;9.07;;;;;;;-3.37;54.98;102976.47;4999458;28;20034;-80
2023/01/21 05:00:22;;;;;;;20.45;9.40;;;;;;;-3.28;55.11;102976.06;4984921;28;20444;-82
2023/01/21 05:02:48;;;;;;;21.38;8.45;;;;;;;-3.09;55.03;102986.44;4983088;28;20057;-79
2023/01/21 05:05:13;;;;;;;22.17;8.80;;;;;;;-2.94;54.94;102982.88;4970964;28;20819;-80
2023/01/21 05:07:39;;;;;;;19.17;8.55;;;;;;;-2.91;54.66;102972.81;5000501;28;20044;-80
2023/01/21 05:10:04;;;;;;;26.52;8.93;;;;;;;-2.96;54.25;102975.16;5001372;28;20038;-79
2023/01/21 05:12:30;;;;;;;19.55;7.90;;;;;;;-2.94;53.58;102973.53;4985662;28;20084;-79
2023/01/21 05:14:58;;;;;;;19.98;8.75;;;;;;;-3.09;53.97;102988.13;4970626;28;20038;-80
2023/01/21 05:17:24;;;;;;;21.45;8.77;;;;;;;-3.18;53.91;102993.66;4985542;28;20053;-78
2023/01/21 05:19:50;;;;;;;20.48;8.18;;;;;;;-3.31;54.19;102988.72;5003071;28;20026;-78
2023/01/21 05:22:16;;;;;;;22.27;9.15;;;;;;;-3.23;54.09;102991.66;4967267;28;20188;-79
2023/01/21 05:24:42;;;;;;;22.02;10.05;;;;;;;-3.28;54.29;102988.84;4986040;28;20037;-81
2023/01/21 05:27:07;;;;;;;20.00;7.93;;;;;;;-3.24;54.37;102993.34;5000142;28;20049;-78
2023/01/21 05:29:33;;;;;;;23.67;8.88;;;;;;;-3.17;54.59;103005.63;4985773;28;20049;-80
2023/01/21 05:31:59;;;;;;;18.88;8.18;;;;;;;-3.11;54.93;103003.41;4985434;28;20478;-78
2023/01/21 05:34:24;;;;;;;22.58;8.68;;;;;;;-2.93;55.03;103007.69;4999401;28;20042;-78
2023/01/21 05:36:50;;;;;;;25.40;9.30;;;;;;;-2.81;54.87;103008.28;4981676;28;20101;-83
2023/01/21 05:39:15;;;;;;;23.75;8.45;;;;;;;-2.66;55.07;103019.28;4999234;28;20030;-80
2023/01/21 05:41:41;;;;;;;19.33;8.48;;;;;;;-2.52;54.96;103011.41;4998882;28;20084;-79
2023/01/21 05:44:08;;;;;;;17.33;7.82;;;;;;;-2.35;54.78;103014.78;4984719;28;20132;-79
2023/01/21 05:46:34;;;;;;;21.83;9.77;;;;;;;-2.25;54.41;103024.66;4999668;28;20042;-81
2023/01/21 05:49:00;;;;;;;29.95;8.95;;;;;;;-2.21;54.38;103021.44;4985098;28;20041;-77
2023/01/21 05:51:25;;;;;;;23.85;8.25;;;;;;;-2.13;54.15;103024.38;4982810;28;20065;-81
2023/01/21 05:53:51;;;;;;;26.77;10.23;;;;;;;-2.29;54.21;103028.78;4984366;28;20646;-79
2023/01/21 05:56:17;;;;;;;24.88;9.18;;;;;;;-2.40;54.39;103032.50;4999981;28;20033;-80
2023/01/21 05:58:43;;;;;;;23.05;9.32;;;;;;;-2.38;54.11;103035.13;4971278;28;20021;-83
2023/01/21 06:01:08;;;;;;;17.00;7.70;;;;;;;-2.36;54.00;103036.94;4983751;28;20038;-81
2023/01/21 06:03:35;;;;;;;22.75;9.20;;;;;;;-2.59;54.08;103032.41;4983079;28;20042;-78
2023/01/21 06:06:00;;;;;;;21.80;8.32;;;;;;;-2.73;53.92;103026.59;4982960;28;20034;-77
2023/01/21 06:08:26;;;;;;;20.88;8.40;;;;;;;-2.85;53.91;103039.63;4966936;28;20030;-79
2023/01/21 06:10:55;;;;;;;22.35;9.30;;;;;;;-2.92;53.88;103045.25;4972198;28;20454;-79
2023/01/21 06:13:22;;;;;;;23.90;8.18;;;;;;;-3.02;53.89;103048.16;4998548;28;20138;-81
2023/01/21 06:15:48;;;;;;;24.10;9.52;;;;;;;-2.97;53.77;103044.16;5000235;28;20402;-78
2023/01/21 06:18:14;;;;;;;16.30;7.47;;;;;;;-3.11;53.87;103052.00;4967275;28;20046;-79
2023/01/21 06:20:39;;;;;;;22.63;7.88;;;;;;;-3.17;53.78;103061.91;4965038;28;20065;-79
2023/01/21 06:23:05;;;;;;;21.02;7.95;;;;;;;-3.23;54.10;103059.03;4998841;28;20137;-77
2023/01/21 06:25:32;;;;;;;23.23;8.68;;;;;;;-3.33;54.09;103054.25;4983225;28;20416;-79
2023/01/21 06:27:58;;;;;;;22.27;8.85;;;;;;;-3.42;54.32;103062.31;4985153;28;20052;-81
2023/01/21 06:30:24;;;;;;;18.13;7.00;;;;;;;-3.38;54.63;103076.16;4996667;28;20392;-83
2023/01/21 06:32:50;;;;;;;24.52;9.18;;;;;;;-3.32;54.71;103079.00;4998951;28;20057;-81
2023/01/21 06:35:16;;;;;;;22.70;10.15;;;;;;;-3.29;54.76;103082.63;4967688;28;20034;-81
2023/01/21 06:37:43;;;;;;;19.08;8.20;;;;;;;-3.13;55.19;103091.97;4981662;28;20041;-83
2023/01/21 06:40:10;;;;;;;25.17;8.88;;;;;;;-2.91;55.36;103096.53;4986963;28;20064;-80
2023/01/21 06:42:35;;;;;;;20.33;9.05;;;;;;;-2.79;55.17;103095.41;4997003;28;20132;-85
2023/01/21 06:45:00;;;;;;;20.85;8.85;;;;;;;-2.61;55.19;103096.31;4984327;28;20122;-81
2023/01/21 06:47:26;;;;;;;22.02;8.98;;;;;;;-2.50;54.03;103096.88;4997217;28;20412;-79
2023/01/21 06:49:51;;;;;;;20.95;9.65;;;;;;;-2.34;53.90;103096.81;4984902;28;20411;-80
2023/01/21 06:52:17;;;;;;;20.80;9.30;;;;;;;-2.34;54.51;103101.94;4990335;28;20042;-78
2023/01/21 06:54:42;;;;;;;25.63;10.02;;;;;;;-2.23;54.30;103102.47;5010331;28;20029;-82
2023/01/21 06:57:09;;;;;;;21.25;9.90;;;;;;;-2.14;54.67;103109.72;4990176;28;20057;-79
2023/01/21 06:59:34;;;;;;;22.40;9.40;;;;;;;-1.98;54.11;103112.22;5000948;28;20478;-84
2023/01/21 07:02:00;;;;;;;21.58;8.95;;;;;;;-2.05;54.50;103113.59;4984500;28;20070;-80
2023/01/21 07:04:26;;;;;;;18.63;8.57;;;;;;;-1.90;54.52;103116.03;4966971;28;20053;-80
2023/01/21 07:06:52;;;;;;;19.67;7.95;;;;;;;-1.78;54.17;103122.53;4967942;28;20062;-79
2023/01/21 07:09:18;;;;;;;20.15;8.18;;;;;;;-1.74;53.85;103132.16;5001111;28;20372;-80
2023/01/21 07:11:43;;;;;;;19.88;8.05;;;;;;;-1.83;53.80;103133.44;4966294;28;20061;-80
2023/01/21 07:14:09;;;;;;;18.23;8.02;;;;;;;-1.78;54.40;103136.22;4988394;28;20079;-80
2023/01/21 07:16:35;;;;;;;20.52;7.72;;;;;;;-1.62;54.13;103140.41;4997494;28;20062;-79
2023/01/21 07:19:00;;;;;;;17.27;8.52;;;;;;;-1.63;53.78;103141.22;4967436;28;20041;-79
2023/01/21 07:21:26;;;;;;;19.67;8.07;;;;;;;-1.55;53.39;103145.03;4984123;28;20041;-78
2023/01/21 07:23:52;;;;;;;21.10;8.48;;;;;;;-1.55;53.64;103154.38;4985436;28;20114;-79
2023/01/21 07:26:18;;;;;;;18.77;9.13;;;;;;;-1.54;53.68;103151.91;4968758;28;20401;-80
2023/01/21 07:28:43;;;;;;;19.55;8.30;;;;;;;-1.41;53.73;103158.50;5002647;28;20044;-82
2023/01/21 07:31:09;;;;;;;17.15;8.10;;;;;;;-1.46;54.00;103160.84;5002856;28;20046;-78
2023/01/21 07:33:34;;;;;;;16.77;8.55;;;;;;;-1.39;53.82;103160.31;4986055;28;20041;-83
2023/01/21 07:35:59;;;;;;;15.65;7.82;;;;;;;-1.31;53.88;103175.19;4969287;28;20234;-80
2023/01/21 07:38:25;;;;;;;25.58;9.07;;;;;;;-1.28;53.50;103185.59;5001906;28;20046;-78
2023/01/21 07:40:52;;;;;;;17.00;7.18;;;;;;;-1.20;53.63;103179.13;4971651;28;20050;-79
2023/01/21 07:43:18;;;;;;;15.15;7.85;;;;;;;-1.19;53.31;103188.59;4985896;28;20113;-80
2023/01/21 07:45:43;;;;;;;18.55;9.85;;;;;;;-1.21;53.88;103187.66;4986496;28;20026;-79
2023/01/21 07:48:10;;;;;;;18.83;8.23;;;;;;;-1.14;53.57;103191.38;4985770;28;20739;-78
2023/01/21 07:50:36;;;;;;;19.17;8.82;;;;;;;-1.03;53.61;103197.91;5546235;23;20160;-77
2023/01/21 08:03:48;;;;;;;15.70;8.30;;;;;;;-0.68;53.32;103214.00;5450402;22;20785;-77
2023/01/21 08:06:15;;;;;;;18.67;8.38;;;;;;;-0.72;53.10;103209.56;5003039;28;20077;-78
2023/01/21 08:08:40;;;;;;;16.70;8.85;;;;;;;-0.80;53.27;103216.91;5020262;28;20041;-77
2023/01/21 08:11:06;;;;;;;17.17;7.88;;;;;;;-0.80;53.49;103211.78;5019797;28;20036;-77
2023/01/21 08:13:31;;;;;;;18.55;9.50;;;;;;;-0.76;53.48;103218.81;4990917;28;20034;-77
2023/01/21 08:15:57;;;;;;;18.17;8.30;;;;;;;-0.69;53.22;103217.38;5003319;28;20038;-77
2023/01/21 08:18:23;;;;;;;18.35;8.43;;;;;;;-0.61;53.55;103214.34;4982336;28;20038;-77
2023/01/21 08:20:56;;;;;;;17.10;8.20;;;;;;;-0.53;53.45;103213.81;5001258;28;20038;-77
2023/01/21 08:23:22;;;;;;;18.77;8.10;;;;;;;-0.51;53.55;103219.88;4982036;28;20093;-77
2023/01/21 08:25:48;;;;;;;15.55;7.03;;;;;;;-0.50;53.73;103217.41;5003517;28;20105;-78
2023/01/21 08:28:13;;;;;;;20.80;8.52;;;;;;;-0.53;53.45;103221.50;4988876;28;20045;-78
2023/01/21 08:30:39;;;;;;;16.38;8.77;;;;;;;-0.50;53.51;103226.78;5003132;28;20101;-79
2023/01/21 08:33:04;;;;;;;14.80;7.68;;;;;;;-0.44;53.68;103225.34;4985305;28;20038;-78
2023/01/21 08:35:29;;;;;;;26.98;9.43;;;;;;;-0.54;53.86;103218.06;4987294;28;20042;-77
2023/01/21 08:37:56;;;;;;;19.00;8.55;;;;;;;-0.26;53.65;103222.72;5002805;28;20057;-77
2023/01/21 08:40:25;;;;;;;13.63;7.25;;;;;;;-0.16;53.16;103223.97;5000594;28;20022;-77
2023/01/21 08:42:51;;;;;;;20.08;9.45;;;;;;;-0.14;53.31;103227.50;4987094;28;20080;-77
2023/01/21 08:45:17;;;;;;;16.02;7.50;;;;;;;-0.05;53.11;103232.16;4987161;28;20042;-77
2023/01/21 08:47:42;;;;;;;17.38;8.13;;;;;;;-0.05;52.98;103242.44;5003506;28;20063;-78
2023/01/21 08:50:08;;;;;;;21.90;9.85;;;;;;;0.03;53.08;103241.94;4989341;28;20117;-79
2023/01/21 08:52:34;;;;;;;12.48;7.45;;;;;;;0.11;53.11;103244.81;4969452;28;20060;-79
2023/01/21 08:54:59;;;;;;;15.20;7.82;;;;;;;0.09;53.19;103250.72;4984622;28;20041;-77
2023/01/21 08:57:26;;;;;;;21.30;9.15;;;;;;;0.12;53.41;103254.28;5001140;28;20046;-78
2023/01/21 08:59:51;;;;;;;13.50;6.55;;;;;;;0.12;53.41;103254.28;4971575;28;20026;-78
2023/01/21 09:02:17;;;;;;;13.18;7.45;;;;;;;0.04;53.66;103261.69;4987469;28;20042;-77
2023/01/21 09:04:42;;;;;;;13.70;7.47;;;;;;;0.25;52.91;103269.41;5001499;28;20029;-76
2023/01/21 09:07:08;;;;;;;13.18;6.93;;;;;;;0.36;52.82;103271.56;4984434;28;20048;-76
2023/01/21 09:09:33;;;;;;;14.07;7.07;;;;;;;0.31;53.03;103268.81;4968067;28;20034;-76
2023/01/21 09:11:59;;;;;;;12.02;6.50;;;;;;;0.44;52.67;103277.91;4983148;28;20533;-77
2023/01/21 09:14:25;;;;;;;11.85;6.72;;;;;;;0.55;52.52;103278.34;4980701;28;20030;-76
2023/01/21 09:16:51;;;;;;;13.35;5.78;;;;;;;0.33;52.32;103287.75;4982605;28;20045;-76
2023/01/21 09:19:17;;;;;;;12.95;7.45;;;;;;;0.45;52.26;103292.50;4997701;28;20048;-77
2023/01/21 09:21:42;;;;;;;16.27;7.05;;;;;;;0.54;51.79;103289.44;4997934;28;20274;-77
2023/01/21 09:24:08;;;;;;;11.15;6.30;;;;;;;0.53;51.62;103301.44;4966094;28;20057;-76
2023/01/21 09:26:33;;;;;;;10.05;6.10;;;;;;;0.61;51.76;103302.63;4991540;28;21141;-77
2023/01/21 09:29:00;;;;;;;11.02;6.28;;;;;;;0.60;51.68;103308.59;4996193;28;20121;-76
2023/01/21 09:31:28;;;;;;;11.25;5.43;;;;;;;0.67;51.19;103308.00;4981826;28;20563;-77
2023/01/21 09:33:57;;;;;;;10.95;6.28;;;;;;;0.70;50.72;103309.81;4986337;28;20040;-77
2023/01/21 09:36:26;;;;;;;11.15;5.78;;;;;;;0.75;50.75;103310.00;4981861;28;20491;-78
2023/01/21 09:38:51;;;;;;;11.05;5.88;;;;;;;0.85;51.10;103314.72;4983321;28;20068;-77
2023/01/21 09:41:25;;;;;;;8.60;5.35;;;;;;;0.81;50.04;103328.28;4981717;28;20069;-76
2023/01/21 09:44:32;;;;;;;8.18;4.28;;;;;;;0.80;50.59;103322.25;5005453;28;20093;-76
2023/01/21 09:47:21;;;;;;;7.65;3.53;;;;;;;0.78;49.05;103328.16;5011235;28;20378;-75
2023/01/21 09:49:54;;;;;;;8.77;5.47;;;;;;;1.02;47.76;103329.13;5023026;28;20022;-76
2023/01/21 09:52:31;;;;;;;4.28;2.38;;;;;;;1.15;46.45;103329.59;5017098;28;20061;-76
2023/01/21 09:54:58;;;;;;;3.85;2.15;;;;;;;1.21;45.76;103322.13;4997567;28;20116;-77
2023/01/21 09:57:57;;;;;;;4.28;1.65;;;;;;;1.27;46.15;103319.78;4995570;28;20042;-78
2023/01/21 10:00:35;;;;;;;2.90;1.63;;;;;;;1.24;44.87;103324.81;4983614;28;20088;-77
2023/01/21 10:03:24;;;;;;;2.83;1.40;;;;;;;1.44;44.81;103321.34;4997758;28;20052;-76
2023/01/21 10:06:23;;;;;;;3.58;1.95;;;;;;;1.57;45.15;103324.34;4999957;28;20044;-77
2023/01/21 10:09:22;;;;;;;4.15;2.22;;;;;;;1.77;45.54;103323.38;5002175;28;20056;-77
2023/01/21 10:12:03;;;;;;;5.50;3.05;;;;;;;2.29;45.25;103314.88;4999742;28;20088;-77
2023/01/21 10:15:17;;;;;;;4.50;2.95;;;;;;;3.01;44.09;103313.75;4996169;28;20038;-77
2023/01/21 10:18:00;;;;;;;10.38;4.00;;;;;;;3.47;42.68;103315.16;4997066;28;20041;-75
2023/01/21 10:20:35;;;;;;;7.72;3.28;;;;;;;3.70;42.19;103317.50;4995596;28;20037;-74
2023/01/21 10:23:03;;;;;;;4.95;3.40;;;;;;;3.94;41.71;103313.00;4991867;28;20054;-75
2023/01/21 10:25:31;;;;;;;4.82;3.33;;;;;;;3.94;41.81;103313.00;4996259;28;20030;-74
2023/01/21 10:28:02;;;;;;;7.32;3.60;;;;;;;4.04;40.98;103313.25;4979961;28;20042;-76
2023/01/21 10:30:38;;;;;;;5.90;3.65;;;;;;;4.07;41.95;103314.19;4979144;28;20660;-76
2023/01/21 10:33:05;;;;;;;5.70;3.55;;;;;;;4.16;40.67;103300.59;4978584;28;20048;-76
2023/01/21 10:35:56;;;;;;;8.20;4.15;;;;;;;4.45;41.01;103308.25;4994308;28;20044;-77
2023/01/21 10:38:43;;;;;;;8.18;4.05;;;;;;;4.31;40.96;103303.59;4994284;28;20045;-75
2023/01/21 10:41:36;;;;;;;6.00;3.08;;;;;;;4.34;40.92;103303.69;5001647;28;20230;-76
2023/01/21 10:44:23;;;;;;;5.20;2.67;;;;;;;4.18;39.66;103312.75;4997926;28;20072;-76
2023/01/21 10:47:00;;;;;;;3.78;2.50;;;;;;;4.28;39.46;103316.47;4959224;28;20064;-77
2023/01/21 10:49:38;;;;;;;4.10;2.80;;;;;;;4.43;39.52;103316.84;4978586;28;20492;-77
2023/01/21 10:52:24;;;;;;;6.18;3.45;;;;;;;4.56;39.21;103314.56;4977589;28;20057;-75
2023/01/21 10:55:06;;;;;;;7.20;2.75;;;;;;;4.72;38.56;103314.09;4978714;28;21039;-77
2023/01/21 10:57:47;;;;;;;;;;;;;;;4.80;38.65;103309.09;4997459;28;20042;-76
2023/01/21 11:00:36;;;;;;;2.40;1.15;;;;;;;4.82;36.71;103312.59;4984816;28;19971;-76
2023/01/21 11:03:11;;;;;;;4.28;1.88;;;;;;;4.91;37.21;103317.16;5002415;28;20050;-76
2023/01/21 11:05:37;;;;;;;4.38;2.22;;;;;;;5.05;35.83;103316.59;4985105;28;20037;-75
2023/01/21 11:08:03;;;;;;;2.67;1.58;;;;;;;5.09;35.73;103321.88;4999573;28;20125;-76
2023/01/21 11:10:29;;;;;;;4.97;1.33;;;;;;;5.01;35.97;103319.09;5001947;28;20095;-76
2023/01/21 11:12:55;;;;;;;2.63;1.15;;;;;;;4.97;35.53;103318.16;5002919;28;20140;-77
2023/01/21 11:15:22;;;;;;;3.03;2.03;;;;;;;5.20;35.34;103312.59;5001428;28;20049;-77
2023/01/21 11:17:52;;;;;;;4.10;2.25;;;;;;;5.19;35.55;103311.72;4998835;28;20100;-76
2023/01/21 11:20:32;;;;;;;4.93;2.58;;;;;;;4.88;36.88;103314.47;4983894;28;20030;-76
2023/01/21 11:23:00;;;;;;;4.80;3.30;;;;;;;4.85;37.18;103317.84;5001918;28;20058;-77
2023/01/21 11:25:34;;;;;;;3.95;2.40;;;;;;;4.76;37.72;103322.81;4983034;28;20121;-76
2023/01/21 11:28:01;;;;;;;5.53;2.67;;;;;;;4.79;38.00;103323.75;4986451;28;20104;-76
2023/01/21 11:30:38;;;;;;;3.17;2.25;;;;;;;5.05;38.55;103320.91;4982783;28;20029;-76
2023/01/21 11:33:30;;;;;;;4.85;2.55;;;;;;;5.31;37.04;103320.63;4984918;28;20526;-77
2023/01/21 11:35:57;;;;;;;5.40;2.58;;;;;;;5.60;37.62;103316.91;4979973;28;20076;-77
2023/01/21 11:38:28;;;;;;;6.38;2.58;;;;;;;5.61;37.02;103321.25;4998483;28;20062;-76
2023/01/21 11:41:13;;;;;;;7.28;4.47;;;;;;;5.14;39.20;103323.69;4968958;28;20040;-76
2023/01/21 11:43:45;;;;;;;11.02;6.03;;;;;;;5.36;39.95;103317.25;4999655;28;20040;-77
2023/01/21 11:46:29;;;;;;;10.48;6.40;;;;;;;4.73;41.74;103328.78;4969339;28;20822;-76